Time;durP1;ratioP1;P1;durP2;ratioP2;P2;SDS_P1;SDS_P2;PMS_P1;PMS_P2;Temp;Humidity;BMP_temperature;BMP_pressure;BME280_temperature;BME280_humidity;BME280_pressure;Samples;Min_cycle;Max_cycle;Signal;HPM_P1;HPM_P2
2024/03/13 00:00:04;;;;;;;1.17;1.17;;;;;;;11.41;62.68;99444.56;4474864;31;34054;-82
2024/03/13 00:02:38;;;;;;;1.50;1.45;;;;;;;11.47;63.00;99444.25;4477238;31;33546;-82
2024/03/13 00:05:07;;;;;;;1.05;1.05;;;;;;;11.49;62.81;99439.75;4491442;31;33452;-82
2024/03/13 00:07:35;;;;;;;0.85;0.50;;;;;;;12.01;61.14;99449.28;4462475;31;33595;-82
2024/03/13 00:10:06;;;;;;;0.55;0.55;;;;;;;11.97;61.41;99443.34;4478119;31;32672;-82
2024/03/13 00:12:35;;;;;;;1.55;1.45;;;;;;;11.91;61.11;99446.31;4466227;31;33422;-82
2024/03/13 00:15:05;;;;;;;0.55;0.55;;;;;;;11.69;61.87;99451.87;4480830;31;32647;-83
2024/03/13 00:17:32;;;;;;;3.42;0.95;;;;;;;12.07;60.51;99453.44;4476527;31;33824;-83
2024/03/13 00:20:00;;;;;;;1.65;1.00;;;;;;;11.97;60.96;99448.62;4477620;31;34319;-83
2024/03/13 00:22:29;;;;;;;1.17;0.43;;;;;;;11.89;60.91;99448.19;4488469;31;33222;-83
2024/03/13 00:24:58;;;;;;;1.67;1.40;;;;;;;12.00;60.87;99451.09;4487086;31;33549;-83
2024/03/13 00:27:26;;;;;;;0.43;0.43;;;;;;;12.20;59.96;99449.12;4477459;31;33749;-83
2024/03/13 00:29:54;;;;;;;7.30;1.35;;;;;;;12.18;60.31;99443.09;4492845;31;34111;-83
2024/03/13 00:32:24;;;;;;;1.35;1.25;;;;;;;12.19;60.20;99447.44;4478233;31;32410;-83
2024/03/13 00:34:52;;;;;;;0.57;0.57;;;;;;;12.35;59.48;99445.66;4476875;31;34531;-83
2024/03/13 00:37:21;;;;;;;1.02;1.02;;;;;;;12.12;59.83;99446.06;4478802;31;33616;-84
2024/03/13 00:39:49;;;;;;;0.57;0.57;;;;;;;12.25;59.96;99437.37;4492504;31;34006;-83
2024/03/13 00:42:17;;;;;;;2.03;1.92;;;;;;;12.07;60.23;99434.91;4478418;31;33451;-83
2024/03/13 00:44:45;;;;;;;2.03;0.88;;;;;;;12.08;60.33;99436.59;4463045;31;33168;-83
2024/03/13 00:47:14;;;;;;;2.30;1.58;;;;;;;12.04;60.11;99441.19;4491212;31;34700;-83
2024/03/13 00:49:42;;;;;;;1.45;1.35;;;;;;;11.81;61.01;99434.50;4492042;31;34168;-82
2024/03/13 00:52:11;;;;;;;1.12;1.00;;;;;;;12.09;60.21;99438.28;4479540;31;34306;-82
2024/03/13 00:54:46;;;;;;;3.95;1.33;;;;;;;11.96;60.11;99433.72;4492521;31;34484;-82
2024/03/13 00:57:17;;;;;;;1.17;0.90;;;;;;;11.66;61.43;99430.03;4479749;31;33866;-82
2024/03/13 00:59:46;;;;;;;1.62;1.20;;;;;;;11.83;60.35;99426.53;4479121;31;34052;-82
2024/03/13 01:02:15;;;;;;;0.82;0.82;;;;;;;11.07;63.18;99426.12;4463843;31;35103;-81
2024/03/13 01:04:44;;;;;;;1.83;1.25;;;;;;;11.65;60.91;99417.75;4477042;31;32531;-82
2024/03/13 01:07:12;;;;;;;0.73;0.73;;;;;;;11.83;nan;99408.00;4493241;31;34060;-82
2024/03/13 01:09:40;;;;;;;0.52;0.52;;;;;;;11.24;61.89;99410.22;4480371;31;34735;-82
2024/03/13 01:12:08;;;;;;;9.55;2.37;;;;;;;11.45;61.62;99405.63;4476627;31;33195;-83
2024/03/13 01:14:38;;;;;;;2.03;1.45;;;;;;;11.38;61.69;99402.44;4478331;31;33765;-83
2024/03/13 01:17:06;;;;;;;0.88;0.82;;;;;;;11.52;60.93;99412.25;4477657;31;34445;-84
2024/03/13 01:19:34;;;;;;;4.80;2.30;;;;;;;11.42;60.82;99406.63;4473016;31;34398;-83
2024/03/13 01:22:07;;;;;;;0.47;0.47;;;;;;;11.12;62.05;99402.97;4478864;31;34346;-83
2024/03/13 01:24:36;;;;;;;5.10;0.98;;;;;;;11.42;61.46;99403.12;4482596;31;33313;-82
2024/03/13 01:27:04;;;;;;;0.75;0.75;;;;;;;11.03;62.17;99405.13;4492345;31;34301;-82
2024/03/13 01:29:31;;;;;;;1.30;1.30;;;;;;;11.05;62.47;99406.84;4482180;31;35368;-82
2024/03/13 01:31:59;;;;;;;1.95;1.12;;;;;;;11.14;61.82;99403.72;4491493;31;33253;-82
2024/03/13 01:34:27;;;;;;;2.90;1.75;;;;;;;10.90;62.44;99411.12;4490959;31;33486;-82
2024/03/13 01:39:41;;;;;;;1.55;0.88;;;;;;;11.12;61.54;99406.47;4493201;31;34526;-83
2024/03/13 01:56:26;;;;;;;0.75;0.75;;;;;;;11.16;61.90;99405.38;4492441;31;33585;-82
2024/03/13 01:59:03;;;;;;;2.85;1.10;;;;;;;11.32;61.29;99394.84;4492345;31;33821;-83
2024/03/13 02:04:23;;;;;;;1.45;1.08;;;;;;;11.11;61.81;99401.22;4450565;31;32424;-82
2024/03/13 02:06:51;;;;;;;0.90;0.88;;;;;;;11.10;61.90;99394.25;4479351;31;33720;-83
2024/03/13 02:09:22;;;;;;;1.02;1.02;;;;;;;11.03;62.11;99405.13;4476036;31;33605;-84
2024/03/13 02:11:51;;;;;;;0.20;0.20;;;;;;;10.87;62.64;99398.06;4476468;31;33843;-83
2024/03/13 02:14:20;;;;;;;0.57;0.57;;;;;;;10.69;63.31;99408.66;4466499;31;32088;-83
2024/03/13 02:16:54;;;;;;;1.35;0.57;;;;;;;11.26;61.20;99409.22;4492941;31;33564;-83
2024/03/13 02:19:22;;;;;;;1.50;1.23;;;;;;;11.16;61.81;99404.53;4472781;31;32719;-83
2024/03/13 02:21:57;;;;;;;0.52;0.52;;;;;;;11.44;60.64;99404.75;4491261;31;37454;-83
2024/03/13 02:24:26;;;;;;;1.58;1.15;;;;;;;10.81;62.92;99415.09;4476278;31;32262;-84
2024/03/13 02:26:54;;;;;;;2.50;1.05;;;;;;;11.32;61.11;99404.56;4476672;31;32817;-84
2024/03/13 02:29:21;;;;;;;1.12;1.02;;;;;;;11.20;61.68;99412.22;4492879;31;33398;-84
2024/03/13 02:31:49;;;;;;;0.17;0.17;;;;;;;11.13;61.77;99415.25;4489621;31;34308;-84
2024/03/13 02:34:18;;;;;;;0.40;0.40;;;;;;;11.18;61.40;99413.22;4490234;31;33785;-84
2024/03/13 02:36:47;;;;;;;2.25;0.77;;;;;;;11.35;60.53;99414.97;4489428;31;33598;-83
2024/03/13 02:39:18;;;;;;;1.45;1.37;;;;;;;11.38;60.70;99415.66;4478618;31;35008;-83
2024/03/13 02:41:46;;;;;;;2.00;0.97;;;;;;;11.43;60.69;99415.41;4492258;31;34797;-84
2024/03/13 02:44:14;;;;;;;0.85;0.85;;;;;;;11.41;60.51;99415.50;4476430;31;33632;-84
2024/03/13 02:46:43;;;;;;;0.88;0.88;;;;;;;11.49;60.42;99413.31;4468794;31;32617;-83
2024/03/13 02:49:11;;;;;;;1.55;1.45;;;;;;;11.25;61.27;99412.81;4489084;31;33510;-83
2024/03/13 02:51:39;;;;;;;0.95;0.95;;;;;;;10.78;62.38;99412.63;4476942;31;33844;-83
2024/03/13 02:54:08;;;;;;;1.35;0.52;;;;;;;10.94;62.46;99420.63;4491370;31;33978;-82
2024/03/13 02:56:36;;;;;;;1.05;1.05;;;;;;;11.23;61.36;99412.03;4466702;31;32717;-83
2024/03/13 02:59:04;;;;;;;1.42;1.23;;;;;;;11.24;61.40;99418.16;4463682;31;33833;-83
2024/03/13 03:01:32;;;;;;;0.65;0.57;;;;;;;11.28;61.26;99417.06;4480254;31;33046;-83
2024/03/13 03:03:59;;;;;;;6.37;1.98;;;;;;;11.28;61.40;99417.91;4478850;31;33680;-83
2024/03/13 03:06:27;;;;;;;2.00;1.02;;;;;;;11.04;62.24;99413.91;4467842;31;33734;-84
2024/03/13 03:08:57;;;;;;;1.90;1.65;;;;;;;10.98;62.49;99423.03;4492247;31;33875;-82
2024/03/13 03:11:25;;;;;;;1.17;1.17;;;;;;;11.07;62.21;99420.84;4480632;31;33755;-83
2024/03/13 03:13:54;;;;;;;4.53;1.45;;;;;;;11.19;62.12;99414.91;4490447;31;33511;-83
2024/03/13 03:16:21;;;;;;;1.70;1.60;;;;;;;11.07;62.54;99418.22;4477667;31;32632;-83
2024/03/13 03:18:49;;;;;;;2.00;1.75;;;;;;;10.67;63.72;99426.34;4477895;31;33872;-82
2024/03/13 03:21:18;;;;;;;1.52;1.42;;;;;;;11.22;62.06;99420.03;4476722;31;32837;-83
2024/03/13 03:23:46;;;;;;;0.85;0.70;;;;;;;11.06;62.62;99414.69;4475347;31;33429;-83
2024/03/13 03:26:18;;;;;;;2.30;2.10;;;;;;;11.34;61.54;99413.25;4480411;31;33668;-82
2024/03/13 03:28:46;;;;;;;2.12;1.98;;;;;;;11.09;62.50;99418.97;4486098;31;34336;-82
2024/03/13 03:31:14;;;;;;;2.47;1.02;;;;;;;11.21;62.28;99418.34;4474697;31;34714;-82
2024/03/13 03:33:42;;;;;;;0.98;0.90;;;;;;;11.16;62.53;99409.81;4476876;31;32014;-83
2024/03/13 03:36:13;;;;;;;3.08;0.98;;;;;;;11.32;61.33;99421.25;4462940;31;33690;-83
2024/03/13 03:38:41;;;;;;;0.60;0.60;;;;;;;11.26;62.22;99417.16;4466923;31;33008;-82
2024/03/13 03:41:09;;;;;;;0.52;0.52;;;;;;;11.00;62.84;99426.44;4477506;31;32651;-83
2024/03/13 03:43:37;;;;;;;1.48;1.37;;;;;;;11.02;63.13;99429.84;4495930;31;34246;-83
2024/03/13 03:46:05;;;;;;;2.92;2.08;;;;;;;11.26;62.24;99424.25;4477399;31;33297;-83
2024/03/13 03:48:32;;;;;;;1.37;1.20;;;;;;;11.00;63.17;99429.06;4480335;31;34472;-83
2024/03/13 03:51:00;;;;;;;0.60;0.60;;;;;;;11.01;63.04;99422.88;4462999;31;91662;-84
2024/03/13 03:53:29;;;;;;;2.00;1.83;;;;;;;11.26;61.96;99430.37;4469546;31;32584;-83
2024/03/13 03:55:58;;;;;;;1.12;1.12;;;;;;;11.38;61.54;99435.94;4480750;31;33081;-83
2024/03/13 03:58:26;;;;;;;1.90;1.70;;;;;;;11.46;61.24;99434.59;4467332;31;34993;-83
2024/03/13 04:00:54;;;;;;;1.15;0.80;;;;;;;11.34;61.76;99437.87;4478351;31;33995;-83
2024/03/13 04:03:22;;;;;;;1.73;1.62;;;;;;;11.12;62.21;99429.37;4491581;31;34032;-83
2024/03/13 04:05:50;;;;;;;1.25;0.85;;;;;;;11.42;61.27;99427.78;4479959;31;35117;-83
2024/03/13 04:08:20;;;;;;;1.25;1.15;;;;;;;11.52;61.05;99438.72;4480186;31;33916;-83
2024/03/13 04:10:48;;;;;;;0.88;0.80;;;;;;;11.37;61.59;99435.09;4476293;31;32833;-83
2024/03/13 04:13:19;;;;;;;0.47;0.47;;;;;;;10.97;62.56;99431.03;4477941;31;32616;-84
2024/03/13 04:15:50;;;;;;;2.97;1.65;;;;;;;10.95;63.23;99428.44;4478993;31;32913;-83
2024/03/13 04:18:18;;;;;;;2.40;1.55;;;;;;;11.29;62.07;99431.97;4475648;31;32773;-84
2024/03/13 04:20:45;;;;;;;0.55;0.55;;;;;;;11.33;61.86;99428.25;4476688;31;33406;-84
2024/03/13 04:23:13;;;;;;;1.50;1.40;;;;;;;11.32;61.90;99431.84;4468398;31;33479;-84
2024/03/13 04:25:41;;;;;;;2.00;1.90;;;;;;;11.00;62.94;99428.22;4479381;31;32637;-84
2024/03/13 04:28:09;;;;;;;1.05;1.05;;;;;;;10.86;63.51;99428.91;4470324;31;33712;-84
2024/03/13 04:30:40;;;;;;;1.45;1.30;;;;;;;11.13;62.60;99420.53;4473877;31;33324;-85
2024/03/13 04:33:08;;;;;;;2.08;1.87;;;;;;;11.13;62.50;99420.53;4469082;31;33035;-81
2024/03/13 04:35:36;;;;;;;1.02;1.02;;;;;;;11.09;62.74;99421.63;4490885;31;34310;-82
2024/03/13 04:38:04;;;;;;;1.37;1.10;;;;;;;10.98;63.31;99411.59;4475882;31;34344;-82
2024/03/13 04:40:32;;;;;;;0.88;0.88;;;;;;;11.05;63.06;99417.41;4490890;31;33719;-82
2024/03/13 04:43:01;;;;;;;1.12;1.05;;;;;;;11.17;62.67;99412.34;4478906;31;33455;-82
2024/03/13 04:45:29;;;;;;;2.83;2.28;;;;;;;11.02;63.14;99410.50;4476967;31;33777;-82
2024/03/13 04:47:57;;;;;;;1.45;1.35;;;;;;;10.88;63.80;99416.50;4477444;31;33484;-82
2024/03/13 04:50:24;;;;;;;2.53;1.77;;;;;;;10.96;63.50;99416.09;4492096;31;34504;-82
2024/03/13 04:52:53;;;;;;;2.28;2.08;;;;;;;10.96;63.57;99419.59;4475953;31;33064;-81
2024/03/13 04:55:21;;;;;;;1.55;1.45;;;;;;;10.69;63.88;99426.28;4470624;31;33598;-81
2024/03/13 04:57:49;;;;;;;2.75;2.08;;;;;;;10.67;64.37;99422.84;4477942;31;32979;-81
2024/03/13 05:00:17;;;;;;;1.58;1.48;;;;;;;10.92;63.81;99425.97;4464222;31;34199;-81
2024/03/13 05:02:44;;;;;;;2.35;2.22;;;;;;;10.92;63.74;99425.97;4476855;31;33953;-81
2024/03/13 05:05:12;;;;;;;1.02;1.02;;;;;;;11.03;62.73;99442.13;4490051;31;33867;-81
2024/03/13 05:07:44;;;;;;;0.52;0.52;;;;;;;10.45;65.40;99445.06;4474379;31;33880;-82
2024/03/13 05:10:16;;;;;;;2.47;2.25;;;;;;;10.74;64.04;99440.97;4476234;31;34387;-82
2024/03/13 05:12:46;;;;;;;2.35;2.12;;;;;;;11.07;63.46;99442.00;4474273;31;32887;-81
2024/03/13 05:15:14;;;;;;;2.00;1.83;;;;;;;11.12;63.06;99450.53;4490777;31;33874;-81
2024/03/13 05:17:42;;;;;;;2.10;1.12;;;;;;;11.12;62.62;99455.81;4493544;31;34371;-82
2024/03/13 05:20:12;;;;;;;1.83;1.73;;;;;;;10.97;63.40;99454.81;4476824;31;34137;-82
2024/03/13 05:22:40;;;;;;;1.20;1.20;;;;;;;10.85;64.00;99464.19;4462374;31;33865;-83
2024/03/13 05:25:14;;;;;;;3.40;2.95;;;;;;;10.79;64.31;99464.50;4493042;31;33433;-83
2024/03/13 05:27:46;;;;;;;1.30;1.27;;;;;;;10.56;65.25;99472.72;4466533;31;35482;-82
2024/03/13 05:30:14;;;;;;;5.57;1.98;;;;;;;11.05;63.49;99467.63;4487919;31;33733;-83
2024/03/13 05:32:43;;;;;;;2.65;1.85;;;;;;;10.42;65.58;99476.88;4479854;31;33617;-83
2024/03/13 05:35:13;;;;;;;1.23;0.95;;;;;;;10.79;64.59;99480.34;4492059;31;33833;-84
2024/03/13 05:37:41;;;;;;;0.82;0.82;;;;;;;10.43;65.68;99483.84;4477713;31;34069;-83
2024/03/13 05:40:12;;;;;;;2.05;1.65;;;;;;;10.58;65.07;99481.41;4494312;31;33371;-83
2024/03/13 05:42:41;;;;;;;0.57;0.57;;;;;;;10.34;65.68;99479.00;4482031;31;34026;-82
2024/03/13 05:45:10;;;;;;;0.60;0.60;;;;;;;10.89;63.67;99488.66;4464972;31;32619;-83
2024/03/13 05:47:40;;;;;;;0.60;0.60;;;;;;;10.79;64.33;99496.19;4479342;31;32642;-82
2024/03/13 05:50:10;;;;;;;1.27;1.00;;;;;;;10.65;64.61;99496.03;4491098;31;34590;-82
2024/03/13 05:52:38;;;;;;;0.50;0.50;;;;;;;10.84;64.05;99488.91;4481191;31;32739;-82
2024/03/13 05:55:06;;;;;;;1.87;1.48;;;;;;;10.67;64.80;99496.78;4481130;31;33798;-83
2024/03/13 05:57:34;;;;;;;1.45;1.35;;;;;;;10.80;63.91;99497.91;4478803;31;33096;-83
2024/03/13 06:00:07;;;;;;;1.75;0.45;;;;;;;10.73;64.91;99504.44;4479216;31;34280;-83
2024/03/13 06:02:38;;;;;;;3.95;2.80;;;;;;;10.92;63.83;99497.31;4482798;31;33423;-81
2024/03/13 06:05:11;;;;;;;9.45;2.05;;;;;;;10.77;64.39;99503.31;4476328;31;32799;-81
2024/03/13 06:07:41;;;;;;;1.42;1.30;;;;;;;11.09;63.50;99503.53;4490984;31;33598;-82
2024/03/13 06:10:12;;;;;;;4.20;1.95;;;;;;;11.07;63.03;99510.69;4478889;31;34151;-82
2024/03/13 06:12:40;;;;;;;0.80;0.80;;;;;;;11.06;63.17;99508.94;4466275;31;32929;-82
2024/03/13 06:15:12;;;;;;;1.23;1.17;;;;;;;10.78;64.61;99512.97;4477342;31;32800;-82
2024/03/13 06:17:40;;;;;;;5.05;1.45;;;;;;;11.06;63.57;99508.94;4478478;31;33509;-81
2024/03/13 06:20:13;;;;;;;1.02;1.02;;;;;;;11.28;62.98;99509.56;4481102;31;33418;-82
2024/03/13 06:22:41;;;;;;;1.55;1.12;;;;;;;11.24;62.89;99505.37;4477448;31;32769;-81
2024/03/13 06:25:09;;;;;;;1.37;1.37;;;;;;;10.81;64.46;99512.81;4476404;31;34300;-82
2024/03/13 06:27:37;;;;;;;5.68;1.20;;;;;;;11.39;62.44;99512.50;4470664;31;33019;-82
2024/03/13 06:30:05;;;;;;;2.42;2.22;;;;;;;11.24;63.21;99506.22;4492434;31;34076;-81
2024/03/13 06:32:33;;;;;;;3.15;1.90;;;;;;;11.47;62.19;99505.03;4482451;31;33610;-81
2024/03/13 06:35:05;;;;;;;1.62;1.52;;;;;;;11.73;61.28;99513.41;4466243;31;32448;-81
2024/03/13 06:37:34;;;;;;;1.15;1.05;;;;;;;11.27;62.54;99513.16;4478421;31;33285;-81
2024/03/13 06:40:03;;;;;;;2.20;1.45;;;;;;;11.64;61.46;99500.69;4465815;31;35132;-80
2024/03/13 06:42:32;;;;;;;2.67;1.85;;;;;;;11.51;61.92;99506.59;4492874;31;33577;-81
2024/03/13 06:45:00;;;;;;;0.88;0.88;;;;;;;11.78;61.37;99508.75;4490356;31;33896;-82
2024/03/13 06:47:29;;;;;;;1.92;1.83;;;;;;;12.19;60.35;99503.00;4477065;31;33710;-82
2024/03/13 06:49:58;;;;;;;2.42;2.22;;;;;;;12.17;60.41;99499.59;4466592;31;33366;-82
2024/03/13 06:52:28;;;;;;;2.28;2.00;;;;;;;12.35;59.12;99503.88;4493305;31;33634;-82
2024/03/13 06:54:56;;;;;;;1.40;1.40;;;;;;;12.31;58.95;99505.00;4476183;31;35529;-82
2024/03/13 06:57:24;;;;;;;1.75;1.65;;;;;;;12.27;59.53;99511.41;4466789;31;33393;-82
2024/03/13 06:59:52;;;;;;;2.65;1.40;;;;;;;12.33;58.63;99510.19;4489274;31;34883;-82
2024/03/13 07:02:24;;;;;;;1.45;1.35;;;;;;;12.25;58.80;99514.13;4477111;31;32058;-82
2024/03/13 07:04:51;;;;;;;1.42;1.25;;;;;;;12.11;58.92;99516.69;4477517;31;33775;-81
2024/03/13 07:07:19;;;;;;;0.68;0.68;;;;;;;12.16;58.96;99524.38;4486398;31;33687;-82
2024/03/13 07:09:49;;;;;;;1.50;1.17;;;;;;;11.67;60.36;99516.38;4476928;31;33306;-81
2024/03/13 07:12:16;;;;;;;1.00;1.00;;;;;;;11.70;60.18;99518.88;4491441;31;34218;-82
2024/03/13 07:14:44;;;;;;;1.27;0.80;;;;;;;11.73;60.31;99518.72;4493270;31;33463;-82
2024/03/13 07:17:12;;;;;;;1.27;1.17;;;;;;;12.09;58.71;99528.28;4489518;31;33903;-82
2024/03/13 07:19:40;;;;;;;1.37;1.27;;;;;;;11.88;59.81;99531.16;4467819;31;33878;-81
2024/03/13 07:22:09;;;;;;;1.65;1.15;;;;;;;11.88;59.64;99536.44;4466672;31;33753;-82
2024/03/13 07:24:37;;;;;;;1.48;1.27;;;;;;;12.27;58.70;99533.44;4477470;31;32353;-81
2024/03/13 07:27:05;;;;;;;3.37;2.30;;;;;;;11.72;59.99;99536.34;4488201;31;34648;-82
2024/03/13 07:29:33;;;;;;;2.62;1.50;;;;;;;12.03;59.23;99532.97;4478435;31;33956;-82
2024/03/13 07:32:00;;;;;;;3.17;2.05;;;;;;;11.99;59.40;99533.22;4476121;31;32651;-82
2024/03/13 07:34:28;;;;;;;1.00;1.00;;;;;;;12.26;59.04;99530.88;4491294;31;33750;-82
2024/03/13 07:36:57;;;;;;;2.22;1.40;;;;;;;12.42;58.26;99539.66;4491891;31;33432;-82
2024/03/13 07:39:28;;;;;;;2.97;2.28;;;;;;;12.64;57.25;99541.13;4476641;31;34499;-82
2024/03/13 07:41:56;;;;;;;1.10;1.10;;;;;;;12.84;57.78;99538.19;4475051;31;33633;-82
2024/03/13 07:44:24;;;;;;;4.32;1.17;;;;;;;12.86;57.50;99536.28;4477935;31;33704;-82
2024/03/13 07:46:52;;;;;;;1.92;1.75;;;;;;;13.37;55.63;99536.03;4479717;31;33713;-82
2024/03/13 07:49:20;;;;;;;1.65;1.55;;;;;;;13.30;55.76;99535.56;4480505;31;32894;-82
2024/03/13 07:51:47;;;;;;;2.05;1.95;;;;;;;12.85;56.47;99544.34;4478487;31;33339;-82
2024/03/13 07:54:15;;;;;;;2.17;1.20;;;;;;;12.89;55.86;99541.44;4476612;31;34490;-81
2024/03/13 07:56:43;;;;;;;5.68;1.35;;;;;;;13.03;54.89;99549.44;4491477;31;33842;-81
2024/03/13 07:59:11;;;;;;;3.90;1.25;;;;;;;13.43;54.12;99546.28;4477667;31;34041;-81
2024/03/13 08:01:42;;;;;;;4.62;1.75;;;;;;;13.55;54.00;99546.41;4478111;31;32974;-82
2024/03/13 08:04:11;;;;;;;2.83;2.15;;;;;;;13.29;54.67;99549.75;4491572;31;33117;-83
2024/03/13 08:06:39;;;;;;;2.60;1.85;;;;;;;13.66;53.87;99550.22;4474888;31;33013;-82
2024/03/13 08:09:30;;;;;;;2.80;2.50;;;;;;;12.92;55.89;99556.31;4480761;31;33234;-82
2024/03/13 08:12:15;;;;;;;0.93;0.93;;;;;;;13.57;53.64;99555.12;4478337;31;36349;-82
2024/03/13 08:15:00;;;;;;;1.67;1.58;;;;;;;13.72;54.07;99549.84;4491512;31;33675;-83
2024/03/13 08:17:45;;;;;;;2.10;1.52;;;;;;;14.11;52.92;99545.72;4478977;31;32600;-82
2024/03/13 08:20:32;;;;;;;6.18;2.45;;;;;;;14.25;52.46;99553.66;4479529;31;34853;-82
2024/03/13 08:23:17;;;;;;;0.75;0.75;;;;;;;14.08;52.53;99549.38;4479527;31;33349;-83
2024/03/13 08:26:04;;;;;;;4.90;1.80;;;;;;;14.45;51.49;99553.25;4488726;31;33808;-83
2024/03/13 08:28:49;;;;;;;1.65;1.58;;;;;;;14.56;51.15;99550.78;4477121;31;32769;-82
2024/03/13 08:31:35;;;;;;;2.33;2.12;;;;;;;14.72;51.76;99557.78;4491202;31;32633;-83
2024/03/13 08:34:20;;;;;;;1.42;1.33;;;;;;;15.09;49.88;99548.25;4487687;31;33721;-82
2024/03/13 08:37:07;;;;;;;2.15;2.03;;;;;;;14.28;52.13;99553.44;4489133;31;33953;-82
2024/03/13 08:39:53;;;;;;;2.50;1.75;;;;;;;14.85;51.74;99551.56;4480490;31;33244;-82
2024/03/13 08:42:39;;;;;;;2.17;1.98;;;;;;;15.10;50.58;99548.16;4489385;31;33869;-82
2024/03/13 08:45:28;;;;;;;2.35;2.22;;;;;;;14.96;51.04;99558.84;4487274;31;34400;-83
2024/03/13 08:48:13;;;;;;;9.20;2.58;;;;;;;15.59;49.81;99554.62;4478845;31;33986;-83
2024/03/13 08:50:59;;;;;;;9.48;1.95;;;;;;;15.90;48.34;99555.22;4472190;31;33371;-83
2024/03/13 08:53:45;;;;;;;0.93;0.93;;;;;;;15.82;48.33;99556.59;4478103;31;33060;-82
2024/03/13 08:56:35;;;;;;;0.60;0.60;;;;;;;15.72;48.88;99550.22;4489544;31;32402;-82
2024/03/13 08:59:20;;;;;;;0.95;0.80;;;;;;;15.61;47.89;99542.91;4491525;31;33678;-82
2024/03/13 09:02:06;;;;;;;2.97;2.00;;;;;;;15.23;50.27;99558.81;4470734;31;32588;-83
2024/03/13 09:04:53;;;;;;;1.02;0.98;;;;;;;14.98;50.98;99546.28;4491062;31;33807;-83
2024/03/13 09:07:40;;;;;;;1.55;1.45;;;;;;;15.35;49.98;99549.19;4472309;31;32491;-82
2024/03/13 09:10:12;;;;;;;2.10;2.00;;;;;;;15.62;49.20;99547.31;4490384;31;34712;-83
2024/03/13 09:12:40;;;;;;;5.30;1.85;;;;;;;15.68;49.46;99550.53;4476021;31;34261;-84
2024/03/13 09:15:09;;;;;;;1.60;1.48;;;;;;;15.27;50.71;99548.81;4477318;31;33861;-83
2024/03/13 09:17:38;;;;;;;2.22;2.08;;;;;;;15.67;49.39;99552.34;4480594;31;33091;-83
2024/03/13 09:20:06;;;;;;;2.17;1.37;;;;;;;15.72;48.52;99554.69;4478939;31;33161;-83
2024/03/13 09:22:34;;;;;;;1.52;1.35;;;;;;;15.54;49.98;99549.63;4495002;31;32947;-83
2024/03/13 09:25:03;;;;;;;3.92;2.67;;;;;;;15.78;49.13;99562.25;4476541;31;33115;-83
2024/03/13 09:27:30;;;;;;;4.65;1.27;;;;;;;15.90;48.38;99556.06;4492991;31;32373;-83
2024/03/13 09:29:58;;;;;;;2.92;2.67;;;;;;;15.58;49.65;99558.25;4490371;31;33491;-83
2024/03/13 09:32:28;;;;;;;2.40;1.95;;;;;;;15.94;47.98;99562.88;4466627;31;32756;-83
2024/03/13 09:34:55;;;;;;;1.90;1.25;;;;;;;15.69;48.87;99557.56;4477337;31;34338;-83
2024/03/13 09:37:25;;;;;;;1.52;1.42;;;;;;;15.72;49.26;99557.34;4476204;31;32863;-83
2024/03/13 09:39:53;;;;;;;2.40;1.65;;;;;;;15.79;49.69;99564.78;4488563;31;34768;-83
2024/03/13 09:42:22;;;;;;;3.55;3.10;;;;;;;15.71;48.79;99558.28;4478796;31;33688;-83
2024/03/13 09:44:50;;;;;;;3.47;2.00;;;;;;;15.99;48.27;99570.53;4465160;31;32751;-83
2024/03/13 09:47:18;;;;;;;6.03;1.27;;;;;;;16.09;47.40;99567.16;4477708;31;32275;-83
2024/03/13 09:49:46;;;;;;;1.77;1.67;;;;;;;15.78;48.13;99575.56;4480378;31;32378;-82
2024/03/13 09:52:15;;;;;;;4.80;2.33;;;;;;;15.87;49.21;99577.59;4491358;31;33640;-82
2024/03/13 09:54:44;;;;;;;5.53;1.83;;;;;;;16.03;48.64;99572.88;4489195;31;34208;-82
2024/03/13 09:57:13;;;;;;;0.95;0.95;;;;;;;15.46;50.03;99573.22;4472449;31;32600;-82
2024/03/13 09:59:41;;;;;;;8.68;3.42;;;;;;;15.21;50.68;99573.19;4490826;31;33656;-82
2024/03/13 10:02:16;;;;;;;2.83;1.95;;;;;;;15.58;50.00;99575.09;4489815;31;32353;-82
2024/03/13 10:04:48;;;;;;;1.12;1.10;;;;;;;15.85;48.95;99568.84;4480791;31;34262;-82
2024/03/13 10:07:20;;;;;;;3.92;1.52;;;;;;;15.62;49.38;99578.41;4491835;31;33626;-82
2024/03/13 10:09:48;;;;;;;2.45;1.98;;;;;;;15.92;48.35;99578.12;4468881;31;34067;-82
2024/03/13 10:12:22;;;;;;;1.75;1.65;;;;;;;15.74;49.42;99580.22;4483467;31;34038;-82
2024/03/13 10:14:51;;;;;;;3.10;2.60;;;;;;;15.25;50.84;99580.00;4480903;31;36177;-82
2024/03/13 10:17:21;;;;;;;0.93;0.88;;;;;;;15.85;49.48;99574.16;4477700;31;33264;-82
2024/03/13 10:19:50;;;;;;;5.75;3.05;;;;;;;16.22;48.16;99568.94;4475792;31;33688;-82
2024/03/13 10:22:19;;;;;;;2.53;2.25;;;;;;;16.30;48.28;99566.59;4488313;31;33542;-82
2024/03/13 10:24:51;;;;;;;1.55;1.42;;;;;;;16.27;47.23;99569.47;4477143;31;34664;-82
2024/03/13 10:27:22;;;;;;;2.10;1.62;;;;;;;16.03;47.96;99556.91;4478295;31;32226;-82
2024/03/13 10:29:52;;;;;;;1.45;1.23;;;;;;;15.78;47.38;99556.91;4474872;31;36282;-82
2024/03/13 10:32:21;;;;;;;0.68;0.68;;;;;;;15.59;47.08;99560.81;4476964;31;33922;-82
2024/03/13 10:34:49;;;;;;;3.37;1.50;;;;;;;16.16;44.78;99564.06;4476679;31;34822;-82
2024/03/13 10:37:19;;;;;;;0.55;0.55;;;;;;;16.10;44.80;99568.84;4478168;31;33648;-82
2024/03/13 10:39:46;;;;;;;3.58;2.17;;;;;;;15.97;45.89;99562.69;4472925;31;32651;-82
2024/03/13 10:42:14;;;;;;;1.05;0.95;;;;;;;15.84;45.37;99559.16;4475074;31;33640;-82
2024/03/13 10:44:42;;;;;;;2.00;0.98;;;;;;;15.65;46.42;99561.38;4489908;31;34075;-82
2024/03/13 10:47:13;;;;;;;0.75;0.75;;;;;;;16.46;44.02;99559.19;4490474;31;33924;-82
2024/03/13 10:49:41;;;;;;;1.73;1.50;;;;;;;16.20;45.60;99562.88;4478839;31;33640;-82
2024/03/13 10:52:12;;;;;;;1.87;1.77;;;;;;;16.43;42.68;99566.56;4479032;31;34369;-81
2024/03/13 10:54:41;;;;;;;1.53;0.73;;;;;;;16.30;43.73;99566.59;4477249;31;33952;-81
2024/03/13 10:57:18;;;;;;;0.45;0.45;;;;;;;16.11;44.14;99564.38;4475707;31;34945;-82
2024/03/13 10:59:47;;;;;;;1.95;1.25;;;;;;;16.13;44.24;99557.97;4490891;31;32643;-83
2024/03/13 11:02:18;;;;;;;1.75;1.37;;;;;;;16.08;44.25;99560.09;4478035;31;32946;-82
2024/03/13 11:04:45;;;;;;;3.17;0.88;;;;;;;15.80;45.13;99565.66;4488518;31;34083;-82
2024/03/13 11:07:15;;;;;;;1.55;1.45;;;;;;;15.94;44.18;99565.53;4489322;31;33251;-82
2024/03/13 11:09:43;;;;;;;0.13;0.13;;;;;;;15.91;44.73;99562.25;4479367;31;33785;-83
2024/03/13 11:12:21;;;;;;;1.75;1.60;;;;;;;15.80;44.08;99561.16;4491047;31;33855;-82
2024/03/13 11:14:53;;;;;;;1.45;1.15;;;;;;;16.24;43.05;99559.91;4489669;31;32772;-83
2024/03/13 11:17:22;;;;;;;;;;;;;;;16.41;42.47;99564.00;4491549;31;33201;-82
2024/03/13 11:20:14;;;;;;;2.83;0.50;;;;;;;15.92;44.41;99567.47;4492534;31;34092;-82
2024/03/13 11:22:45;;;;;;;0.70;0.70;;;;;;;16.04;43.00;99558.59;4490367;31;33943;-82
2024/03/13 11:25:18;;;;;;;1.10;1.00;;;;;;;16.02;43.11;99557.03;4470990;31;33342;-82
2024/03/13 11:27:55;;;;;;;4.10;1.77;;;;;;;16.19;42.93;99550.50;4478906;31;32893;-82
2024/03/13 11:30:24;;;;;;;1.05;1.05;;;;;;;16.24;43.22;99554.56;4490785;31;33598;-82
2024/03/13 11:32:55;;;;;;;0.62;0.62;;;;;;;16.20;44.13;99558.41;4479848;31;33985;-82
2024/03/13 11:35:23;;;;;;;2.47;2.28;;;;;;;15.97;44.37;99552.03;4492873;31;33651;-82
2024/03/13 11:37:53;;;;;;;2.72;1.08;;;;;;;16.01;45.09;99542.00;4480097;31;33701;-82
2024/03/13 11:40:22;;;;;;;0.80;0.52;;;;;;;16.52;42.53;99548.12;4475968;31;33512;-81
2024/03/13 11:42:56;;;;;;;7.78;1.40;;;;;;;16.71;41.73;99544.09;4477154;31;33102;-82
2024/03/13 11:45:25;;;;;;;0.62;0.55;;;;;;;16.68;41.63;99539.84;4477695;31;33934;-82
2024/03/13 11:47:57;;;;;;;1.05;1.05;;;;;;;16.78;42.30;99532.06;4477839;31;33387;-82
2024/03/13 11:50:26;;;;;;;1.25;1.25;;;;;;;16.96;41.46;99541.38;4476641;31;33722;-83
2024/03/13 11:53:00;;;;;;;1.70;1.55;;;;;;;16.98;40.94;99538.56;4477412;31;34357;-82
2024/03/13 11:55:30;;;;;;;1.10;1.05;;;;;;;16.94;41.76;99537.09;4491086;31;33416;-82
2024/03/13 11:58:21;;;;;;;1.75;1.35;;;;;;;16.87;42.67;99536.72;4475846;31;33223;-82
2024/03/13 12:00:49;;;;;;;0.70;0.70;;;;;;;16.56;42.99;99536.25;4476527;31;33882;-82
2024/03/13 12:03:17;;;;;;;3.08;1.92;;;;;;;16.31;43.66;99528.31;4462029;31;33832;-82
2024/03/13 12:05:47;;;;;;;0.95;0.95;;;;;;;16.50;43.42;99536.69;4478965;31;34739;-82
2024/03/13 12:08:16;;;;;;;1.02;0.88;;;;;;;17.08;41.87;99543.09;4477596;31;32521;-82